McFaddin, Texas
Current Conditions -  °F | °C
As of 8:15 AM on Thursday 29 Jan 2015 (Local Time) from KPKV Reporting Station
Haze Haze  
Wind Chill: 53°   Ceiling: 100
Heat Index: 53°   Visibility: 0.75mi
Dew Point: 53°   Wind: 0mph
Humidity: 100%   Direction: NA
Pressure: 30.2"   Gusts: NA
Location:  28.55°N, 97.01°W
Report Text: KPKV 291415Z AUTO 00000KT 3/4SM BR BKN001 12/12 A3020 RMK AO2 T01180118
Loading
Personal Weather Stations






























Interactive Weather Map New forecast layout! Learn more

10-Day Weather Forecast

Advertisements
Track Severe Weather on mobile